Nashville, Tennessee
Traffic Map
Current Weather Conditions
Nashville, Tennessee
Clear
Clear
70°
Feels Like: 70°
Wind Chill: 70° Ceiling: Unl
Heat Index: 70° Visibility: 10mi
Dew Point: 58° Wind: 7mph
Humidity: 65% Direction: 350° (N)
Pressure: 30.06in Gusts: 0mph
Raw Report DataKBNA 290453Z 35006KT 10SM CLR 21/14 A3006 RMK AO2 SLP171 T02110144
Traffic Incident Summary
Active as of:
Severity:
Category:
InformationThere was an issue retrieving the traffic information for this location. Please try a different location or try again shortly.
Advertisements
Track Severe Weather on mobile